»·PEaware :: N2570U KBFL-KMHV

N2570U :: KBFL-KMHV

FLIGHT INFORMATION

Flight Status: Arrived
Operator: Privately registered:
United States
More flights under this callsign
Pilot: Scott W. (31825)
Aircraft: PIPER PA-28 CHEROKEE ARCHER
(P28A)
More flights by this aircraft type
Origin: KBFL Meadows
United States
Destination: KMHV Mojave
United States
More flights between these airports :: More routes between these airports
Route: EHF
File this flight plan on PilotEdge
Remarks:
Altitude:
(Current/Filed)
7,500ft
Speed:
(Current/Filed)
110kts
Departed: 21-Nov-20 05:12 PM
Arrived: 21-Nov-20 05:45 PM
Distance/Time
Traveled:
50nm/0:33
Distance/Time
To Go:
Arrived

Flight Plot

Page will automatically refresh every two minutes.


Map Options




Map Legend


Flown Route
Filed Route
Departure Airport
Arrival Airport
Navaid (VOR, NDB)
Fix

Horizontal Profiles

Position Reports

Time Latitude Longitude Heading Altitude Ground
Speed
21-Nov-20 16:36 35.430641 -119.047252 226 497ft 0kts
21-Nov-20 16:37 35.430641 -119.047252 226 497ft 0kts
21-Nov-20 16:38 35.430641 -119.047252 226 497ft 0kts
21-Nov-20 16:39 35.430641 -119.047252 226 497ft 0kts
21-Nov-20 16:40 35.430641 -119.047252 226 497ft 0kts
21-Nov-20 16:41 35.430641 -119.047252 226 497ft 0kts
21-Nov-20 16:42 35.430641 -119.047252 226 497ft 0kts
21-Nov-20 16:43 35.430641 -119.047252 226 497ft 0kts
21-Nov-20 16:44 35.430641 -119.047252 226 497ft 0kts
21-Nov-20 16:45 35.430641 -119.047252 226 497ft 0kts
21-Nov-20 16:46 35.430641 -119.047252 226 497ft 0kts
21-Nov-20 16:47 35.430641 -119.047252 226 497ft 0kts
21-Nov-20 16:48 35.430641 -119.047252 226 497ft 0kts
21-Nov-20 16:49 35.430641 -119.047252 226 497ft 0kts
21-Nov-20 16:50 35.430641 -119.047252 226 497ft 0kts
21-Nov-20 16:51 35.430641 -119.047252 226 497ft 0kts
21-Nov-20 16:52 35.430641 -119.047252 226 497ft 0kts
21-Nov-20 16:53 35.430641 -119.047252 226 497ft 0kts
21-Nov-20 16:54 35.430641 -119.047252 226 497ft 0kts
21-Nov-20 16:55 35.430641 -119.047252 226 497ft 0kts
21-Nov-20 16:56 35.430641 -119.047252 226 497ft 0kts
21-Nov-20 16:57 35.430641 -119.047252 226 497ft 0kts
21-Nov-20 16:58 35.430641 -119.047252 226 497ft 0kts
21-Nov-20 16:59 35.430641 -119.047252 226 497ft 0kts
21-Nov-20 17:00 35.430554 -119.047325 187 496ft 1kts
21-Nov-20 17:01 35.430165 -119.047610 249 494ft 0kts
21-Nov-20 17:02 35.430165 -119.047610 249 494ft 0kts
21-Nov-20 17:03 35.429857 -119.048548 232 491ft 9kts
21-Nov-20 17:04 35.426835 -119.045470 136 482ft 19kts
21-Nov-20 17:05 35.425863 -119.044723 218 480ft 0kts
21-Nov-20 17:06 35.425863 -119.044723 218 480ft 0kts
21-Nov-20 17:07 35.425863 -119.044723 218 480ft 0kts
21-Nov-20 17:08 35.425863 -119.044723 218 480ft 0kts
21-Nov-20 17:09 35.425751 -119.045043 248 478ft 0kts
21-Nov-20 17:10 35.425564 -119.046185 316 476ft 7kts
21-Nov-20 17:11 35.438528 -119.061616 310 1158ft 77kts
21-Nov-20 17:12 35.459886 -119.066116 9 2103ft 84kts
21-Nov-20 17:13 35.468358 -119.043949 122 2983ft 83kts
21-Nov-20 17:14 35.453051 -119.024103 138 3848ft 80kts
21-Nov-20 17:15 35.440905 -119.000224 120 4639ft 84kts
21-Nov-20 17:16 35.429590 -118.973850 121 5330ft 88kts
21-Nov-20 17:17 35.417640 -118.946574 125 5994ft 90kts
21-Nov-20 17:18 35.403882 -118.919986 124 6615ft 92kts
21-Nov-20 17:19 35.390392 -118.892654 123 7254ft 94kts
21-Nov-20 17:20 35.376275 -118.863480 122 7379ft 102kts
21-Nov-20 17:21 35.361532 -118.832212 121 7454ft 115kts
21-Nov-20 17:22 35.345068 -118.797106 121 7473ft 117kts
21-Nov-20 17:23 35.328106 -118.760830 121 7469ft 118kts
21-Nov-20 17:24 35.310816 -118.723872 122 7370ft 118kts
21-Nov-20 17:25 35.293927 -118.687844 122 7301ft 118kts
21-Nov-20 17:26 35.277383 -118.652416 123 7380ft 112kts
21-Nov-20 17:27 35.261138 -118.617674 123 7505ft 110kts
21-Nov-20 17:28 35.244556 -118.582622 115 7572ft 112kts
21-Nov-20 17:29 35.227666 -118.546637 116 7416ft 112kts
21-Nov-20 17:30 35.211828 -118.512862 114 7447ft 109kts
21-Nov-20 17:31 35.195598 -118.478183 115 7465ft 110kts
21-Nov-20 17:32 35.179502 -118.443948 115 7483ft 111kts
21-Nov-20 17:33 35.163424 -118.409889 116 7220ft 112kts
21-Nov-20 17:34 35.147558 -118.376306 115 6595ft 108kts
21-Nov-20 17:35 35.131867 -118.343149 116 5971ft 106kts
21-Nov-20 17:36 35.116597 -118.310947 117 5410ft 103kts
21-Nov-20 17:37 35.101439 -118.280118 117 4957ft 102kts
21-Nov-20 17:38 35.088959 -118.247120 109 4929ft 104kts
21-Nov-20 17:39 35.080080 -118.215365 107 4726ft 86kts
21-Nov-20 17:40 35.071520 -118.187319 106 3902ft 87kts
21-Nov-20 17:41 35.069429 -118.159367 80 3455ft 79kts
21-Nov-20 17:42 35.072515 -118.131376 93 3225ft 79kts
21-Nov-20 17:43 35.059362 -118.126203 258 3190ft 75kts
21-Nov-20 17:44 35.059158 -118.146444 280 2741ft 6kts
21-Nov-20 17:45 35.058343 -118.148802 224 2744ft 0kts
21-Nov-20 17:46 35.058343 -118.148802 224 2744ft 0kts
21-Nov-20 17:47 35.057831 -118.149585 231 2744ft 14kts
21-Nov-20 17:48 35.057121 -118.151785 354 2748ft 0kts
21-Nov-20 17:50 35.057121 -118.151785 354 2748ft 0kts
21-Nov-20 17:51 35.057121 -118.151785 354 2748ft 0kts

Navigation Log

Ident Type
Flight plan parsing failed, navigation log unavailable